VTUJ

Surin Airport

Thailand
TAF VTUJ 161700Z 1618/1718 24006KT 8000 SCT025 BKN100 TEMPO 1700/1706 VRB15KT 4000 TSRA FEW018CB BKN020 OVC080
Issued Valid From Valid To
Jul-16 @ 17:00 UTC
(3 hours ago)
Jul-16 @ 18:00 UTC
(2 hours ago)
Jul-17 @ 18:00 UTC
(in 22 hours)
Jul-16 @ 18:00 to Jul-17 @ 18:00
TAF VTUJ 161700Z 1618/1718 24006KT 8000 SCT025 BKN100
Wind Visibility Clouds
240° at 6 knots 7,998 meters
  • Scattered at 2,500' AGL
  • Broken at 10,000' AGL
Temporary Jul-17 @ 00:00 to Jul-17 @ 06:00
TEMPO 1700/1706 VRB15KT 4000 TSRA FEW018CB BKN020 OVC080
Wind Visibility Clouds Conditions
Variable at 15 knots 4,007 meters
  • Few at 1,800' AGL
  • Broken at 2,000' AGL
  • Overcast at 8,000' AGL
  • Thunderstorm
  • Rain
TAF VTUJ 161700Z 1618/1718 24006KT 8000 SCT025 BKN100 TEMPO 1700/1706 VRB15KT 4000 TSRA FEW018CB BKN020 OVC080
Issued Jul-16 @ 17:00 UTC
(3 hours ago)
Valid From Jul-16 @ 18:00 UTC
(2 hours ago)
Valid To Jul-17 @ 18:00 UTC
(in 22 hours)
Jul-16 @ 18:00 - Jul-17 @ 18:00
Wind Visibility
240° at 6 knots 7,998 meters
Clouds
  • Scattered at 2,500' AGL
  • Broken at 10,000' AGL
Temporary Jul-17 @ 00:00 - Jul-17 @ 06:00
Wind Visibility
Variable at 15 knots 4,007 meters
Clouds
  • Few at 1,800' AGL
  • Broken at 2,000' AGL
  • Overcast at 8,000' AGL
Conditions
  • Thunderstorm
  • Rain